sensor_id;sensor_type;location;lat;lon;timestamp;P1;durP1;ratioP1;P2;durP2;ratioP2
36315;SDS011;22343;50.820;2.666;2023-06-14T00:00:51;21.63;;;9.75;;
36315;SDS011;22343;50.820;2.666;2023-06-14T00:03:37;15.20;;;9.48;;
36315;SDS011;22343;50.820;2.666;2023-06-14T00:06:23;16.73;;;9.70;;
36315;SDS011;22343;50.820;2.666;2023-06-14T00:09:08;14.95;;;9.52;;
36315;SDS011;22343;50.820;2.666;2023-06-14T00:11:53;15.02;;;9.40;;
36315;SDS011;22343;50.820;2.666;2023-06-14T00:14:39;19.02;;;9.68;;
36315;SDS011;22343;50.820;2.666;2023-06-14T00:17:25;16.77;;;10.20;;
36315;SDS011;22343;50.820;2.666;2023-06-14T00:20:15;15.18;;;9.52;;
36315;SDS011;22343;50.820;2.666;2023-06-14T00:23:01;13.73;;;9.13;;
36315;SDS011;22343;50.820;2.666;2023-06-14T00:25:45;13.05;;;9.98;;
36315;SDS011;22343;50.820;2.666;2023-06-14T00:28:31;13.85;;;9.23;;
36315;SDS011;22343;50.820;2.666;2023-06-14T00:31:15;17.88;;;9.80;;
36315;SDS011;22343;50.820;2.666;2023-06-14T00:34:01;15.20;;;10.18;;
36315;SDS011;22343;50.820;2.666;2023-06-14T00:36:46;17.75;;;9.32;;
36315;SDS011;22343;50.820;2.666;2023-06-14T00:39:31;16.35;;;9.85;;
36315;SDS011;22343;50.820;2.666;2023-06-14T00:42:24;12.95;;;9.15;;
36315;SDS011;22343;50.820;2.666;2023-06-14T00:45:10;15.23;;;9.93;;
36315;SDS011;22343;50.820;2.666;2023-06-14T00:47:56;14.15;;;10.25;;
36315;SDS011;22343;50.820;2.666;2023-06-14T00:50:43;18.23;;;10.00;;
36315;SDS011;22343;50.820;2.666;2023-06-14T00:53:30;14.50;;;10.10;;
36315;SDS011;22343;50.820;2.666;2023-06-14T00:56:19;13.45;;;10.05;;
36315;SDS011;22343;50.820;2.666;2023-06-14T00:59:05;14.15;;;9.85;;
36315;SDS011;22343;50.820;2.666;2023-06-14T01:01:50;15.60;;;9.60;;
36315;SDS011;22343;50.820;2.666;2023-06-14T01:04:35;17.50;;;9.82;;
36315;SDS011;22343;50.820;2.666;2023-06-14T01:07:25;20.38;;;10.73;;
36315;SDS011;22343;50.820;2.666;2023-06-14T01:10:49;21.70;;;11.30;;
36315;SDS011;22343;50.820;2.666;2023-06-14T01:13:38;21.02;;;11.25;;
36315;SDS011;22343;50.820;2.666;2023-06-14T01:16:25;19.50;;;11.18;;
36315;SDS011;22343;50.820;2.666;2023-06-14T01:19:11;21.58;;;11.63;;
36315;SDS011;22343;50.820;2.666;2023-06-14T01:22:00;18.98;;;11.10;;
36315;SDS011;22343;50.820;2.666;2023-06-14T01:24:47;17.30;;;10.95;;
36315;SDS011;22343;50.820;2.666;2023-06-14T01:27:32;20.45;;;10.68;;
36315;SDS011;22343;50.820;2.666;2023-06-14T01:30:18;16.52;;;10.23;;
36315;SDS011;22343;50.820;2.666;2023-06-14T01:33:05;18.27;;;10.38;;
36315;SDS011;22343;50.820;2.666;2023-06-14T01:35:51;12.93;;;10.43;;
36315;SDS011;22343;50.820;2.666;2023-06-14T01:38:37;14.82;;;10.18;;
36315;SDS011;22343;50.820;2.666;2023-06-14T01:41:23;15.07;;;10.43;;
36315;SDS011;22343;50.820;2.666;2023-06-14T01:44:09;16.75;;;10.88;;
36315;SDS011;22343;50.820;2.666;2023-06-14T01:46:56;15.45;;;10.45;;
36315;SDS011;22343;50.820;2.666;2023-06-14T01:49:41;16.13;;;10.52;;
36315;SDS011;22343;50.820;2.666;2023-06-14T01:52:25;13.98;;;9.77;;
36315;SDS011;22343;50.820;2.666;2023-06-14T01:55:11;17.42;;;10.02;;
36315;SDS011;22343;50.820;2.666;2023-06-14T01:57:57;16.10;;;10.90;;
36315;SDS011;22343;50.820;2.666;2023-06-14T02:00:43;15.18;;;10.50;;
36315;SDS011;22343;50.820;2.666;2023-06-14T02:03:30;15.82;;;10.60;;
36315;SDS011;22343;50.820;2.666;2023-06-14T02:06:15;16.08;;;10.68;;
36315;SDS011;22343;50.820;2.666;2023-06-14T02:09:01;16.60;;;10.65;;
36315;SDS011;22343;50.820;2.666;2023-06-14T02:11:46;15.25;;;10.55;;
36315;SDS011;22343;50.820;2.666;2023-06-14T02:14:32;18.48;;;10.73;;
36315;SDS011;22343;50.820;2.666;2023-06-14T02:17:18;17.45;;;11.70;;
36315;SDS011;22343;50.820;2.666;2023-06-14T02:20:04;16.58;;;10.95;;
36315;SDS011;22343;50.820;2.666;2023-06-14T02:22:51;18.00;;;10.48;;
36315;SDS011;22343;50.820;2.666;2023-06-14T02:25:36;11.73;;;10.07;;
36315;SDS011;22343;50.820;2.666;2023-06-14T02:28:22;20.05;;;10.95;;
36315;SDS011;22343;50.820;2.666;2023-06-14T02:31:07;19.48;;;11.60;;
36315;SDS011;22343;50.820;2.666;2023-06-14T02:33:53;20.00;;;11.15;;
36315;SDS011;22343;50.820;2.666;2023-06-14T02:36:38;16.17;;;10.07;;
36315;SDS011;22343;50.820;2.666;2023-06-14T02:39:26;18.25;;;11.55;;
36315;SDS011;22343;50.820;2.666;2023-06-14T02:42:12;16.23;;;11.10;;
36315;SDS011;22343;50.820;2.666;2023-06-14T02:44:58;17.63;;;11.18;;
36315;SDS011;22343;50.820;2.666;2023-06-14T02:47:43;16.58;;;11.40;;
36315;SDS011;22343;50.820;2.666;2023-06-14T02:50:28;14.77;;;10.85;;
36315;SDS011;22343;50.820;2.666;2023-06-14T02:53:13;16.20;;;11.18;;
36315;SDS011;22343;50.820;2.666;2023-06-14T02:55:58;17.92;;;11.77;;
36315;SDS011;22343;50.820;2.666;2023-06-14T02:58:43;15.27;;;11.70;;
36315;SDS011;22343;50.820;2.666;2023-06-14T03:01:29;16.75;;;12.18;;
36315;SDS011;22343;50.820;2.666;2023-06-14T03:04:19;17.63;;;12.27;;
36315;SDS011;22343;50.820;2.666;2023-06-14T03:07:06;17.53;;;12.30;;
36315;SDS011;22343;50.820;2.666;2023-06-14T03:09:54;18.40;;;12.65;;
36315;SDS011;22343;50.820;2.666;2023-06-14T03:12:39;15.10;;;10.77;;
36315;SDS011;22343;50.820;2.666;2023-06-14T03:15:24;11.20;;;9.18;;
36315;SDS011;22343;50.820;2.666;2023-06-14T03:18:09;13.77;;;10.98;;
36315;SDS011;22343;50.820;2.666;2023-06-14T03:20:55;13.75;;;10.18;;
36315;SDS011;22343;50.820;2.666;2023-06-14T03:23:43;15.25;;;11.75;;
36315;SDS011;22343;50.820;2.666;2023-06-14T03:26:28;15.80;;;11.13;;
36315;SDS011;22343;50.820;2.666;2023-06-14T03:29:16;12.82;;;10.10;;
36315;SDS011;22343;50.820;2.666;2023-06-14T03:32:02;13.88;;;9.75;;
36315;SDS011;22343;50.820;2.666;2023-06-14T03:34:48;16.73;;;11.87;;
36315;SDS011;22343;50.820;2.666;2023-06-14T03:37:34;13.43;;;11.50;;
36315;SDS011;22343;50.820;2.666;2023-06-14T03:40:20;18.48;;;13.13;;
36315;SDS011;22343;50.820;2.666;2023-06-14T03:43:06;15.23;;;12.50;;
36315;SDS011;22343;50.820;2.666;2023-06-14T03:45:51;14.60;;;12.07;;
36315;SDS011;22343;50.820;2.666;2023-06-14T03:48:36;15.03;;;12.53;;
36315;SDS011;22343;50.820;2.666;2023-06-14T03:51:21;16.88;;;12.38;;
36315;SDS011;22343;50.820;2.666;2023-06-14T03:54:07;14.77;;;12.07;;
36315;SDS011;22343;50.820;2.666;2023-06-14T03:56:53;17.77;;;11.77;;
36315;SDS011;22343;50.820;2.666;2023-06-14T03:59:38;18.30;;;12.65;;
36315;SDS011;22343;50.820;2.666;2023-06-14T04:02:24;20.10;;;12.43;;
36315;SDS011;22343;50.820;2.666;2023-06-14T04:05:10;19.55;;;13.45;;
36315;SDS011;22343;50.820;2.666;2023-06-14T04:07:54;18.63;;;13.23;;
36315;SDS011;22343;50.820;2.666;2023-06-14T04:10:41;16.50;;;13.23;;
36315;SDS011;22343;50.820;2.666;2023-06-14T04:13:27;17.73;;;12.88;;
36315;SDS011;22343;50.820;2.666;2023-06-14T04:16:13;14.93;;;12.20;;
36315;SDS011;22343;50.820;2.666;2023-06-14T04:19:00;17.15;;;13.07;;
36315;SDS011;22343;50.820;2.666;2023-06-14T04:21:45;17.70;;;13.47;;
36315;SDS011;22343;50.820;2.666;2023-06-14T04:24:31;21.02;;;13.93;;
36315;SDS011;22343;50.820;2.666;2023-06-14T04:27:18;18.52;;;13.32;;
36315;SDS011;22343;50.820;2.666;2023-06-14T04:30:06;18.45;;;13.55;;
36315;SDS011;22343;50.820;2.666;2023-06-14T04:32:53;21.13;;;14.70;;
36315;SDS011;22343;50.820;2.666;2023-06-14T04:35:38;19.73;;;14.52;;
36315;SDS011;22343;50.820;2.666;2023-06-14T04:38:25;22.50;;;14.25;;
36315;SDS011;22343;50.820;2.666;2023-06-14T04:41:12;17.88;;;14.30;;
36315;SDS011;22343;50.820;2.666;2023-06-14T04:43:59;20.38;;;14.30;;
36315;SDS011;22343;50.820;2.666;2023-06-14T04:46:45;19.38;;;14.25;;
36315;SDS011;22343;50.820;2.666;2023-06-14T04:49:30;22.60;;;14.82;;
36315;SDS011;22343;50.820;2.666;2023-06-14T04:52:18;18.30;;;15.00;;
36315;SDS011;22343;50.820;2.666;2023-06-14T04:55:06;19.23;;;13.85;;
36315;SDS011;22343;50.820;2.666;2023-06-14T04:57:52;18.48;;;14.60;;
36315;SDS011;22343;50.820;2.666;2023-06-14T05:00:41;22.42;;;14.90;;
36315;SDS011;22343;50.820;2.666;2023-06-14T05:03:28;21.75;;;15.20;;
36315;SDS011;22343;50.820;2.666;2023-06-14T05:06:15;20.67;;;15.23;;
36315;SDS011;22343;50.820;2.666;2023-06-14T05:09:02;21.33;;;14.95;;
36315;SDS011;22343;50.820;2.666;2023-06-14T05:11:47;20.70;;;15.40;;
36315;SDS011;22343;50.820;2.666;2023-06-14T05:14:33;20.83;;;15.82;;
36315;SDS011;22343;50.820;2.666;2023-06-14T05:17:19;23.73;;;16.08;;
36315;SDS011;22343;50.820;2.666;2023-06-14T05:20:06;21.10;;;15.65;;
36315;SDS011;22343;50.820;2.666;2023-06-14T05:22:56;22.40;;;15.45;;
36315;SDS011;22343;50.820;2.666;2023-06-14T05:25:44;22.75;;;16.98;;
36315;SDS011;22343;50.820;2.666;2023-06-14T05:28:31;21.58;;;16.42;;
36315;SDS011;22343;50.820;2.666;2023-06-14T05:31:16;20.20;;;17.05;;
36315;SDS011;22343;50.820;2.666;2023-06-14T05:34:02;32.08;;;17.48;;
36315;SDS011;22343;50.820;2.666;2023-06-14T05:36:48;22.05;;;18.38;;
36315;SDS011;22343;50.820;2.666;2023-06-14T05:39:34;21.45;;;17.30;;
36315;SDS011;22343;50.820;2.666;2023-06-14T05:42:20;21.40;;;17.60;;
36315;SDS011;22343;50.820;2.666;2023-06-14T05:45:05;20.80;;;16.65;;
36315;SDS011;22343;50.820;2.666;2023-06-14T05:47:50;20.95;;;16.52;;
36315;SDS011;22343;50.820;2.666;2023-06-14T05:50:37;19.73;;;16.33;;
36315;SDS011;22343;50.820;2.666;2023-06-14T05:53:22;20.45;;;16.08;;
36315;SDS011;22343;50.820;2.666;2023-06-14T05:56:06;21.85;;;16.33;;
36315;SDS011;22343;50.820;2.666;2023-06-14T05:58:50;19.48;;;15.27;;
36315;SDS011;22343;50.820;2.666;2023-06-14T06:01:35;17.85;;;15.50;;
36315;SDS011;22343;50.820;2.666;2023-06-14T06:04:20;21.13;;;15.77;;
36315;SDS011;22343;50.820;2.666;2023-06-14T06:07:05;18.75;;;15.50;;
36315;SDS011;22343;50.820;2.666;2023-06-14T06:09:49;18.10;;;15.50;;
36315;SDS011;22343;50.820;2.666;2023-06-14T06:12:34;17.55;;;15.43;;
36315;SDS011;22343;50.820;2.666;2023-06-14T06:15:20;17.15;;;15.35;;
36315;SDS011;22343;50.820;2.666;2023-06-14T06:18:06;17.85;;;16.00;;
36315;SDS011;22343;50.820;2.666;2023-06-14T06:20:50;19.45;;;15.43;;
36315;SDS011;22343;50.820;2.666;2023-06-14T06:23:35;21.50;;;18.33;;
36315;SDS011;22343;50.820;2.666;2023-06-14T06:26:19;19.52;;;17.05;;
36315;SDS011;22343;50.820;2.666;2023-06-14T06:29:03;17.50;;;15.77;;
36315;SDS011;22343;50.820;2.666;2023-06-14T06:31:48;17.70;;;15.85;;
36315;SDS011;22343;50.820;2.666;2023-06-14T06:34:33;19.23;;;15.70;;
36315;SDS011;22343;50.820;2.666;2023-06-14T06:37:17;17.90;;;15.52;;
36315;SDS011;22343;50.820;2.666;2023-06-14T06:40:01;18.25;;;15.73;;
36315;SDS011;22343;50.820;2.666;2023-06-14T06:42:47;19.13;;;16.77;;
36315;SDS011;22343;50.820;2.666;2023-06-14T06:45:32;20.00;;;16.25;;
36315;SDS011;22343;50.820;2.666;2023-06-14T06:48:17;18.80;;;16.63;;
36315;SDS011;22343;50.820;2.666;2023-06-14T06:51:01;20.65;;;16.25;;
36315;SDS011;22343;50.820;2.666;2023-06-14T06:53:51;16.92;;;15.13;;
36315;SDS011;22343;50.820;2.666;2023-06-14T06:56:36;16.73;;;15.05;;
36315;SDS011;22343;50.820;2.666;2023-06-14T06:59:21;18.20;;;15.38;;
36315;SDS011;22343;50.820;2.666;2023-06-14T07:02:05;16.63;;;14.88;;
36315;SDS011;22343;50.820;2.666;2023-06-14T07:04:50;16.58;;;14.93;;
36315;SDS011;22343;50.820;2.666;2023-06-14T07:07:35;18.52;;;15.50;;
36315;SDS011;22343;50.820;2.666;2023-06-14T07:10:19;16.60;;;13.77;;
36315;SDS011;22343;50.820;2.666;2023-06-14T07:13:04;16.02;;;13.30;;
36315;SDS011;22343;50.820;2.666;2023-06-14T07:15:49;15.15;;;13.65;;
36315;SDS011;22343;50.820;2.666;2023-06-14T07:18:34;14.63;;;12.98;;
36315;SDS011;22343;50.820;2.666;2023-06-14T07:21:18;15.13;;;12.48;;
36315;SDS011;22343;50.820;2.666;2023-06-14T07:24:02;14.35;;;12.23;;
36315;SDS011;22343;50.820;2.666;2023-06-14T07:26:47;12.38;;;10.93;;
36315;SDS011;22343;50.820;2.666;2023-06-14T07:29:32;12.93;;;10.93;;
36315;SDS011;22343;50.820;2.666;2023-06-14T07:32:17;14.23;;;10.88;;
36315;SDS011;22343;50.820;2.666;2023-06-14T07:35:01;11.55;;;10.05;;
36315;SDS011;22343;50.820;2.666;2023-06-14T07:37:45;12.10;;;9.68;;
36315;SDS011;22343;50.820;2.666;2023-06-14T07:40:31;10.20;;;9.30;;
36315;SDS011;22343;50.820;2.666;2023-06-14T07:43:15;11.55;;;9.30;;
36315;SDS011;22343;50.820;2.666;2023-06-14T07:46:00;10.85;;;9.13;;
36315;SDS011;22343;50.820;2.666;2023-06-14T07:48:46;11.15;;;9.25;;
36315;SDS011;22343;50.820;2.666;2023-06-14T07:51:30;11.63;;;9.52;;
36315;SDS011;22343;50.820;2.666;2023-06-14T07:54:16;11.90;;;9.30;;
36315;SDS011;22343;50.820;2.666;2023-06-14T07:57:00;11.15;;;9.43;;
36315;SDS011;22343;50.820;2.666;2023-06-14T07:59:44;10.93;;;8.80;;
36315;SDS011;22343;50.820;2.666;2023-06-14T08:02:30;10.10;;;8.98;;
36315;SDS011;22343;50.820;2.666;2023-06-14T08:05:15;10.52;;;9.52;;
36315;SDS011;22343;50.820;2.666;2023-06-14T08:08:01;10.05;;;9.02;;
36315;SDS011;22343;50.820;2.666;2023-06-14T08:10:46;10.10;;;8.48;;
36315;SDS011;22343;50.820;2.666;2023-06-14T08:13:31;11.20;;;8.52;;
36315;SDS011;22343;50.820;2.666;2023-06-14T08:16:17;11.10;;;8.50;;
36315;SDS011;22343;50.820;2.666;2023-06-14T08:19:03;9.55;;;8.65;;
36315;SDS011;22343;50.820;2.666;2023-06-14T08:21:48;10.18;;;8.80;;
36315;SDS011;22343;50.820;2.666;2023-06-14T08:24:33;9.07;;;8.10;;
36315;SDS011;22343;50.820;2.666;2023-06-14T08:27:18;10.02;;;8.77;;
36315;SDS011;22343;50.820;2.666;2023-06-14T08:30:03;9.55;;;8.55;;
36315;SDS011;22343;50.820;2.666;2023-06-14T08:32:49;11.10;;;9.18;;
36315;SDS011;22343;50.820;2.666;2023-06-14T08:35:35;10.70;;;8.85;;
36315;SDS011;22343;50.820;2.666;2023-06-14T08:38:23;9.32;;;8.23;;
36315;SDS011;22343;50.820;2.666;2023-06-14T08:41:09;8.35;;;7.55;;
36315;SDS011;22343;50.820;2.666;2023-06-14T08:43:57;8.57;;;7.78;;
36315;SDS011;22343;50.820;2.666;2023-06-14T08:46:44;10.13;;;8.32;;
36315;SDS011;22343;50.820;2.666;2023-06-14T08:49:29;11.68;;;8.90;;
36315;SDS011;22343;50.820;2.666;2023-06-14T08:52:15;9.55;;;7.43;;
36315;SDS011;22343;50.820;2.666;2023-06-14T08:55:04;10.52;;;8.50;;
36315;SDS011;22343;50.820;2.666;2023-06-14T08:57:50;8.82;;;8.02;;
36315;SDS011;22343;50.820;2.666;2023-06-14T09:00:35;9.15;;;7.55;;
36315;SDS011;22343;50.820;2.666;2023-06-14T09:03:24;11.75;;;7.90;;
36315;SDS011;22343;50.820;2.666;2023-06-14T09:06:14;7.85;;;7.05;;
36315;SDS011;22343;50.820;2.666;2023-06-14T09:08:59;8.73;;;7.82;;
36315;SDS011;22343;50.820;2.666;2023-06-14T09:11:45;9.35;;;7.93;;
36315;SDS011;22343;50.820;2.666;2023-06-14T09:14:29;8.57;;;7.57;;
36315;SDS011;22343;50.820;2.666;2023-06-14T09:17:14;7.85;;;7.10;;
36315;SDS011;22343;50.820;2.666;2023-06-14T09:20:00;7.57;;;6.78;;
36315;SDS011;22343;50.820;2.666;2023-06-14T09:22:45;9.57;;;7.28;;
36315;SDS011;22343;50.820;2.666;2023-06-14T09:25:31;8.20;;;7.43;;
36315;SDS011;22343;50.820;2.666;2023-06-14T09:28:16;8.75;;;7.13;;
36315;SDS011;22343;50.820;2.666;2023-06-14T09:31:01;7.75;;;6.95;;
36315;SDS011;22343;50.820;2.666;2023-06-14T09:33:48;7.78;;;6.97;;
36315;SDS011;22343;50.820;2.666;2023-06-14T09:36:35;8.20;;;7.40;;
36315;SDS011;22343;50.820;2.666;2023-06-14T09:39:21;8.48;;;7.57;;
36315;SDS011;22343;50.820;2.666;2023-06-14T09:42:16;8.50;;;7.70;;
36315;SDS011;22343;50.820;2.666;2023-06-14T09:45:02;8.85;;;7.28;;
36315;SDS011;22343;50.820;2.666;2023-06-14T09:47:49;8.23;;;7.07;;
36315;SDS011;22343;50.820;2.666;2023-06-14T09:50:34;9.15;;;7.60;;
36315;SDS011;22343;50.820;2.666;2023-06-14T09:53:21;9.35;;;7.38;;
36315;SDS011;22343;50.820;2.666;2023-06-14T09:56:08;8.50;;;7.70;;
36315;SDS011;22343;50.820;2.666;2023-06-14T09:58:58;8.63;;;7.82;;
36315;SDS011;22343;50.820;2.666;2023-06-14T10:01:44;9.20;;;8.23;;
36315;SDS011;22343;50.820;2.666;2023-06-14T10:04:30;10.45;;;8.27;;
36315;SDS011;22343;50.820;2.666;2023-06-14T10:07:17;18.00;;;14.65;;
36315;SDS011;22343;50.820;2.666;2023-06-14T10:10:05;7.82;;;7.03;;
36315;SDS011;22343;50.820;2.666;2023-06-14T10:12:51;8.18;;;7.15;;
36315;SDS011;22343;50.820;2.666;2023-06-14T10:24:58;10.27;;;7.80;;
36315;SDS011;22343;50.820;2.666;2023-06-14T10:27:44;8.02;;;7.22;;
36315;SDS011;22343;50.820;2.666;2023-06-14T10:30:31;8.30;;;7.40;;
36315;SDS011;22343;50.820;2.666;2023-06-14T10:33:17;8.73;;;7.82;;
36315;SDS011;22343;50.820;2.666;2023-06-14T10:39:16;8.40;;;7.60;;
36315;SDS011;22343;50.820;2.666;2023-06-14T10:42:03;8.75;;;7.95;;
36315;SDS011;22343;50.820;2.666;2023-06-14T10:47:36;10.23;;;7.80;;
36315;SDS011;22343;50.820;2.666;2023-06-14T10:50:27;8.35;;;7.55;;
36315;SDS011;22343;50.820;2.666;2023-06-14T10:53:24;8.85;;;7.32;;
36315;SDS011;22343;50.820;2.666;2023-06-14T10:56:22;9.68;;;7.68;;
36315;SDS011;22343;50.820;2.666;2023-06-14T10:59:18;9.15;;;7.60;;
36315;SDS011;22343;50.820;2.666;2023-06-14T11:05:04;9.32;;;7.65;;
36315;SDS011;22343;50.820;2.666;2023-06-14T11:10:51;8.27;;;7.13;;
36315;SDS011;22343;50.820;2.666;2023-06-14T11:13:41;8.75;;;7.53;;
36315;SDS011;22343;50.820;2.666;2023-06-14T11:16:30;8.65;;;7.72;;
36315;SDS011;22343;50.820;2.666;2023-06-14T11:19:17;8.45;;;7.65;;
36315;SDS011;22343;50.820;2.666;2023-06-14T11:22:01;8.88;;;8.07;;
36315;SDS011;22343;50.820;2.666;2023-06-14T11:24:45;8.88;;;7.68;;
36315;SDS011;22343;50.820;2.666;2023-06-14T11:27:32;11.25;;;8.13;;
36315;SDS011;22343;50.820;2.666;2023-06-14T11:30:17;8.70;;;7.90;;
36315;SDS011;22343;50.820;2.666;2023-06-14T11:33:02;8.65;;;7.80;;
36315;SDS011;22343;50.820;2.666;2023-06-14T11:35:46;8.38;;;7.50;;
36315;SDS011;22343;50.820;2.666;2023-06-14T11:38:30;9.77;;;7.63;;
36315;SDS011;22343;50.820;2.666;2023-06-14T11:41:19;10.57;;;8.10;;
36315;SDS011;22343;50.820;2.666;2023-06-14T11:44:03;8.55;;;7.78;;
36315;SDS011;22343;50.820;2.666;2023-06-14T11:46:57;8.70;;;7.90;;
36315;SDS011;22343;50.820;2.666;2023-06-14T11:49:41;8.38;;;7.55;;
36315;SDS011;22343;50.820;2.666;2023-06-14T11:52:26;8.63;;;7.60;;
36315;SDS011;22343;50.820;2.666;2023-06-14T11:55:10;8.63;;;7.72;;
36315;SDS011;22343;50.820;2.666;2023-06-14T11:57:55;10.77;;;8.05;;
36315;SDS011;22343;50.820;2.666;2023-06-14T12:00:40;9.57;;;7.80;;
36315;SDS011;22343;50.820;2.666;2023-06-14T12:03:26;8.80;;;7.88;;
36315;SDS011;22343;50.820;2.666;2023-06-14T12:06:13;9.75;;;7.95;;
36315;SDS011;22343;50.820;2.666;2023-06-14T12:08:58;9.05;;;7.75;;
36315;SDS011;22343;50.820;2.666;2023-06-14T12:11:43;10.20;;;7.93;;
36315;SDS011;22343;50.820;2.666;2023-06-14T12:14:30;9.10;;;8.20;;
36315;SDS011;22343;50.820;2.666;2023-06-14T12:17:16;10.00;;;8.13;;
36315;SDS011;22343;50.820;2.666;2023-06-14T12:20:05;8.23;;;7.43;;
36315;SDS011;22343;50.820;2.666;2023-06-14T12:22:53;8.63;;;7.82;;
36315;SDS011;22343;50.820;2.666;2023-06-14T12:25:38;8.90;;;7.50;;
36315;SDS011;22343;50.820;2.666;2023-06-14T12:28:24;8.98;;;8.05;;
36315;SDS011;22343;50.820;2.666;2023-06-14T12:31:15;9.43;;;7.80;;
36315;SDS011;22343;50.820;2.666;2023-06-14T12:34:00;8.60;;;7.50;;
36315;SDS011;22343;50.820;2.666;2023-06-14T12:36:45;8.45;;;7.65;;
36315;SDS011;22343;50.820;2.666;2023-06-14T12:39:30;8.43;;;7.68;;
36315;SDS011;22343;50.820;2.666;2023-06-14T12:42:17;8.18;;;7.38;;
36315;SDS011;22343;50.820;2.666;2023-06-14T12:45:02;8.60;;;7.57;;
36315;SDS011;22343;50.820;2.666;2023-06-14T12:47:47;10.88;;;8.02;;
36315;SDS011;22343;50.820;2.666;2023-06-14T12:50:31;12.00;;;7.55;;
36315;SDS011;22343;50.820;2.666;2023-06-14T12:53:15;8.70;;;8.00;;
36315;SDS011;22343;50.820;2.666;2023-06-14T12:56:00;7.32;;;6.63;;
36315;SDS011;22343;50.820;2.666;2023-06-14T12:58:45;7.57;;;6.78;;
36315;SDS011;22343;50.820;2.666;2023-06-14T13:01:29;9.60;;;6.63;;
36315;SDS011;22343;50.820;2.666;2023-06-14T13:04:13;7.65;;;6.68;;
36315;SDS011;22343;50.820;2.666;2023-06-14T13:06:58;8.35;;;6.72;;
36315;SDS011;22343;50.820;2.666;2023-06-14T13:09:43;9.88;;;6.15;;
36315;SDS011;22343;50.820;2.666;2023-06-14T13:12:27;9.57;;;6.70;;
36315;SDS011;22343;50.820;2.666;2023-06-14T13:15:11;8.40;;;6.30;;
36315;SDS011;22343;50.820;2.666;2023-06-14T13:17:56;7.30;;;6.60;;
36315;SDS011;22343;50.820;2.666;2023-06-14T13:20:40;9.07;;;6.60;;
36315;SDS011;22343;50.820;2.666;2023-06-14T13:23:25;9.30;;;6.85;;
36315;SDS011;22343;50.820;2.666;2023-06-14T13:26:09;9.63;;;6.72;;
36315;SDS011;22343;50.820;2.666;2023-06-14T13:28:54;7.07;;;6.40;;
36315;SDS011;22343;50.820;2.666;2023-06-14T13:31:39;7.90;;;6.10;;
36315;SDS011;22343;50.820;2.666;2023-06-14T13:34:24;8.27;;;7.00;;
36315;SDS011;22343;50.820;2.666;2023-06-14T13:37:08;9.55;;;7.00;;
36315;SDS011;22343;50.820;2.666;2023-06-14T13:39:53;10.43;;;6.80;;
36315;SDS011;22343;50.820;2.666;2023-06-14T13:42:37;9.02;;;6.15;;
36315;SDS011;22343;50.820;2.666;2023-06-14T13:45:21;7.25;;;6.53;;
36315;SDS011;22343;50.820;2.666;2023-06-14T13:48:06;8.02;;;6.45;;
36315;SDS011;22343;50.820;2.666;2023-06-14T13:50:50;7.35;;;6.65;;
36315;SDS011;22343;50.820;2.666;2023-06-14T13:53:34;7.82;;;6.55;;
36315;SDS011;22343;50.820;2.666;2023-06-14T13:56:20;7.10;;;6.22;;
36315;SDS011;22343;50.820;2.666;2023-06-14T13:59:05;7.90;;;6.18;;
36315;SDS011;22343;50.820;2.666;2023-06-14T14:01:49;7.35;;;6.20;;
36315;SDS011;22343;50.820;2.666;2023-06-14T14:04:34;7.97;;;6.97;;
36315;SDS011;22343;50.820;2.666;2023-06-14T14:07:19;6.93;;;6.22;;
36315;SDS011;22343;50.820;2.666;2023-06-14T14:10:04;7.10;;;6.18;;
36315;SDS011;22343;50.820;2.666;2023-06-14T14:12:50;8.75;;;6.45;;
36315;SDS011;22343;50.820;2.666;2023-06-14T14:15:35;7.40;;;6.32;;
36315;SDS011;22343;50.820;2.666;2023-06-14T14:18:19;9.43;;;6.47;;
36315;SDS011;22343;50.820;2.666;2023-06-14T14:21:06;10.80;;;6.60;;
36315;SDS011;22343;50.820;2.666;2023-06-14T14:23:51;6.63;;;5.93;;
36315;SDS011;22343;50.820;2.666;2023-06-14T14:26:36;8.40;;;6.50;;
36315;SDS011;22343;50.820;2.666;2023-06-14T14:29:20;8.18;;;5.95;;
36315;SDS011;22343;50.820;2.666;2023-06-14T14:32:06;7.20;;;6.43;;
36315;SDS011;22343;50.820;2.666;2023-06-14T14:34:51;7.20;;;6.50;;
36315;SDS011;22343;50.820;2.666;2023-06-14T14:37:35;6.55;;;5.85;;
36315;SDS011;22343;50.820;2.666;2023-06-14T14:40:19;8.15;;;7.05;;
36315;SDS011;22343;50.820;2.666;2023-06-14T14:43:04;7.43;;;6.70;;
36315;SDS011;22343;50.820;2.666;2023-06-14T14:45:49;7.18;;;6.30;;
36315;SDS011;22343;50.820;2.666;2023-06-14T14:48:33;7.03;;;6.32;;
36315;SDS011;22343;50.820;2.666;2023-06-14T14:51:17;7.05;;;6.35;;
36315;SDS011;22343;50.820;2.666;2023-06-14T14:54:02;6.95;;;6.25;;
36315;SDS011;22343;50.820;2.666;2023-06-14T14:56:46;7.38;;;6.22;;
36315;SDS011;22343;50.820;2.666;2023-06-14T14:59:30;6.22;;;5.63;;
36315;SDS011;22343;50.820;2.666;2023-06-14T15:02:15;8.85;;;6.78;;
36315;SDS011;22343;50.820;2.666;2023-06-14T15:04:59;8.02;;;5.70;;
36315;SDS011;22343;50.820;2.666;2023-06-14T15:07:45;6.80;;;6.10;;
36315;SDS011;22343;50.820;2.666;2023-06-14T15:10:29;7.25;;;6.45;;
36315;SDS011;22343;50.820;2.666;2023-06-14T15:13:14;7.40;;;6.57;;
36315;SDS011;22343;50.820;2.666;2023-06-14T15:15:58;8.02;;;6.28;;
36315;SDS011;22343;50.820;2.666;2023-06-14T15:18:42;6.15;;;5.55;;
36315;SDS011;22343;50.820;2.666;2023-06-14T15:21:28;7.75;;;6.20;;
36315;SDS011;22343;50.820;2.666;2023-06-14T15:24:14;6.65;;;5.47;;
36315;SDS011;22343;50.820;2.666;2023-06-14T15:27:00;7.65;;;6.85;;
36315;SDS011;22343;50.820;2.666;2023-06-14T15:29:45;8.05;;;6.28;;
36315;SDS011;22343;50.820;2.666;2023-06-14T15:32:29;7.22;;;5.88;;
36315;SDS011;22343;50.820;2.666;2023-06-14T15:35:16;6.20;;;5.60;;
36315;SDS011;22343;50.820;2.666;2023-06-14T15:38:03;7.10;;;6.28;;
36315;SDS011;22343;50.820;2.666;2023-06-14T15:40:49;6.97;;;5.82;;
36315;SDS011;22343;50.820;2.666;2023-06-14T15:43:33;9.32;;;6.25;;
36315;SDS011;22343;50.820;2.666;2023-06-14T15:46:19;8.20;;;6.10;;
36315;SDS011;22343;50.820;2.666;2023-06-14T15:49:08;6.15;;;5.55;;
36315;SDS011;22343;50.820;2.666;2023-06-14T15:51:54;6.88;;;6.10;;
36315;SDS011;22343;50.820;2.666;2023-06-14T15:54:39;7.35;;;6.38;;
36315;SDS011;22343;50.820;2.666;2023-06-14T15:57:23;8.73;;;6.43;;
36315;SDS011;22343;50.820;2.666;2023-06-14T16:00:08;10.85;;;6.45;;
36315;SDS011;22343;50.820;2.666;2023-06-14T16:02:53;7.75;;;6.63;;
36315;SDS011;22343;50.820;2.666;2023-06-14T16:05:38;6.85;;;5.90;;
36315;SDS011;22343;50.820;2.666;2023-06-14T16:08:23;8.00;;;6.68;;
36315;SDS011;22343;50.820;2.666;2023-06-14T16:11:08;10.73;;;6.47;;
36315;SDS011;22343;50.820;2.666;2023-06-14T16:13:53;6.43;;;5.80;;
36315;SDS011;22343;50.820;2.666;2023-06-14T16:16:39;7.57;;;6.78;;
36315;SDS011;22343;50.820;2.666;2023-06-14T16:19:24;8.70;;;6.60;;
36315;SDS011;22343;50.820;2.666;2023-06-14T16:22:08;7.07;;;6.40;;
36315;SDS011;22343;50.820;2.666;2023-06-14T16:24:52;9.02;;;6.75;;
36315;SDS011;22343;50.820;2.666;2023-06-14T16:27:37;7.10;;;6.40;;
36315;SDS011;22343;50.820;2.666;2023-06-14T16:30:21;7.43;;;6.50;;
36315;SDS011;22343;50.820;2.666;2023-06-14T16:33:06;6.72;;;6.07;;
36315;SDS011;22343;50.820;2.666;2023-06-14T16:35:50;8.43;;;6.07;;
36315;SDS011;22343;50.820;2.666;2023-06-14T16:38:34;7.32;;;6.05;;
36315;SDS011;22343;50.820;2.666;2023-06-14T16:41:19;7.03;;;5.93;;
36315;SDS011;22343;50.820;2.666;2023-06-14T16:44:03;6.82;;;6.07;;
36315;SDS011;22343;50.820;2.666;2023-06-14T16:46:49;7.40;;;6.20;;